Terminal Aerodrome Forecast
Issued by NWS

Home | Current Version | Previous Version | Text Only | Print | Product List | Glossary On
Versions: 1 2 3 4 5 6 7 8 9 10 11 12 13 14 15 16 17 18 19 20 21 22 23 24 25 26
294
FTUS41 KBUF 212324
TAFJHW
TAF
KJHW 212324Z 2200/2224 02006KT P6SM SCT200
     FM220200 VRB03KT P6SM SCT200
     FM221300 10004KT P6SM SKC
     FM221900 06006KT P6SM FEW250
      AMD LTD TO CLD VIS AND WIND=

USA.gov is the U.S. government's official web portal to all federal, state and local government web resources and services.